createdAt,value
2023-04-18T00:00:29.471Z,15.83
2023-04-18T00:02:59.220Z,16.20
2023-04-18T00:05:28.583Z,15.97
2023-04-18T00:07:56.788Z,17.03
2023-04-18T00:10:25.241Z,16.50
2023-04-18T00:12:53.428Z,15.87
2023-04-18T00:15:21.701Z,16.77
2023-04-18T00:17:51.380Z,15.93
2023-04-18T00:20:19.635Z,16.27
2023-04-18T00:22:47.869Z,16.00
2023-04-18T00:25:16.576Z,16.13
2023-04-18T00:27:44.783Z,16.00
2023-04-18T00:30:13.332Z,15.93
2023-04-18T00:32:41.638Z,15.27
2023-04-18T00:35:11.481Z,16.73
2023-04-18T00:37:39.723Z,16.33
2023-04-18T00:40:08.857Z,16.43
2023-04-18T00:42:37.178Z,16.20
2023-04-18T00:45:05.688Z,16.60
2023-04-18T00:47:33.950Z,16.83
2023-04-18T00:50:02.356Z,16.13
2023-04-18T00:52:34.013Z,16.43
2023-04-18T00:55:02.240Z,16.03
2023-04-18T00:57:30.986Z,16.43
2023-04-18T00:59:59.492Z,16.40
2023-04-18T01:02:31.134Z,15.73
2023-04-18T01:04:59.489Z,15.53
2023-04-18T01:07:27.692Z,16.10
2023-04-18T01:09:57.282Z,17.03
2023-04-18T01:12:25.454Z,16.67
2023-04-18T01:14:53.627Z,16.20
2023-04-18T01:17:23.425Z,16.07
2023-04-18T01:19:51.775Z,15.07
2023-04-18T01:22:21.313Z,14.63
2023-04-18T01:24:50.999Z,14.80
2023-04-18T01:27:19.189Z,14.40
2023-04-18T01:29:47.386Z,14.73
2023-04-18T01:32:17.571Z,13.97
2023-04-18T01:34:45.855Z,13.00
2023-04-18T01:37:14.038Z,13.30
2023-04-18T01:39:42.320Z,13.70
2023-04-18T01:42:11.833Z,12.10
2023-04-18T01:44:40.000Z,12.50
2023-04-18T01:47:08.195Z,12.17
2023-04-18T01:49:36.473Z,12.13
2023-04-18T01:52:04.707Z,11.43
2023-04-18T01:54:32.851Z,11.50
2023-04-18T01:57:01.047Z,11.53
2023-04-18T01:59:30.597Z,10.60
2023-04-18T02:01:58.858Z,10.33
2023-04-18T02:04:27.163Z,10.30
2023-04-18T02:06:55.380Z,10.30
2023-04-18T02:09:23.528Z,9.63
2023-04-18T02:11:51.760Z,9.60
2023-04-18T02:14:21.060Z,10.00
2023-04-18T02:16:50.990Z,9.37
2023-04-18T02:19:19.308Z,9.43
2023-04-18T02:21:47.432Z,9.10
2023-04-18T02:24:15.749Z,8.83
2023-04-18T02:26:45.321Z,8.93
2023-04-18T02:29:13.558Z,9.37
2023-04-18T02:31:42.256Z,8.60
2023-04-18T02:34:12.036Z,9.10
2023-04-18T02:36:40.373Z,8.50
2023-04-18T02:39:08.486Z,8.97
2023-04-18T02:41:37.675Z,8.43
2023-04-18T02:44:05.902Z,8.23
2023-04-18T02:46:34.137Z,8.23
2023-04-18T02:49:02.277Z,8.30
2023-04-18T02:51:32.073Z,8.23
2023-04-18T02:54:00.321Z,8.30
2023-04-18T02:56:28.620Z,8.63
2023-04-18T02:58:56.814Z,8.50
2023-04-18T03:01:24.991Z,8.07
2023-04-18T03:03:53.583Z,8.03
2023-04-18T03:06:21.766Z,8.20
2023-04-18T03:08:51.748Z,8.87
2023-04-18T03:11:19.940Z,8.97
2023-04-18T03:13:48.127Z,8.80
2023-04-18T03:16:16.740Z,8.33
2023-04-18T03:18:45.021Z,8.87
2023-04-18T03:21:13.696Z,8.20
2023-04-18T03:23:41.962Z,8.43
2023-04-18T03:26:12.588Z,8.47
2023-04-18T03:28:40.879Z,8.77
2023-04-18T03:31:09.207Z,9.03
2023-04-18T03:33:39.126Z,8.37
2023-04-18T03:36:07.634Z,9.57
2023-04-18T03:38:35.808Z,8.80
2023-04-18T03:41:03.988Z,8.47
2023-04-18T03:43:33.540Z,9.07
2023-04-18T03:46:01.759Z,8.87
2023-04-18T03:48:30.519Z,9.47
2023-04-18T03:50:58.685Z,9.50
2023-04-18T03:53:26.881Z,9.27
2023-04-18T03:55:55.117Z,8.90
2023-04-18T03:58:23.902Z,9.43
2023-04-18T04:00:53.575Z,8.80
2023-04-18T04:03:21.903Z,9.40
2023-04-18T04:05:50.347Z,9.53
2023-04-18T04:08:18.508Z,9.83
2023-04-18T04:10:46.707Z,9.77
2023-04-18T04:13:15.076Z,9.17
2023-04-18T04:15:43.303Z,9.63
2023-04-18T04:18:12.846Z,9.50
2023-04-18T04:20:41.092Z,10.17
2023-04-18T04:23:10.027Z,9.60
2023-04-18T04:25:38.615Z,9.70
2023-04-18T04:28:06.860Z,9.73
2023-04-18T04:30:35.085Z,10.10
2023-04-18T04:33:03.860Z,9.90
2023-04-18T04:35:34.740Z,9.53
2023-04-18T04:38:03.019Z,9.40
2023-04-18T04:40:31.212Z,9.80
2023-04-18T04:42:59.658Z,9.47
2023-04-18T04:45:27.880Z,9.53
2023-04-18T04:47:56.069Z,10.20
2023-04-18T04:50:24.304Z,9.70
2023-04-18T04:52:53.847Z,9.80
2023-04-18T04:55:22.400Z,9.73
2023-04-18T04:57:50.710Z,10.20
2023-04-18T05:00:20.844Z,9.70
2023-04-18T05:02:49.212Z,9.73
2023-04-18T05:05:17.662Z,9.50
2023-04-18T05:07:45.873Z,10.20
2023-04-18T05:10:15.447Z,11.33
2023-04-18T05:12:43.707Z,10.53
2023-04-18T05:15:12.473Z,10.20
2023-04-18T05:17:40.669Z,10.40
2023-04-18T05:20:10.008Z,10.00
2023-04-18T05:22:38.283Z,10.27
2023-04-18T05:25:06.965Z,10.23
2023-04-18T05:27:36.620Z,10.90
2023-04-18T05:30:04.835Z,10.83
2023-04-18T05:32:33.197Z,10.03
2023-04-18T05:35:01.449Z,11.40
2023-04-18T05:37:29.741Z,10.20
2023-04-18T05:39:58.761Z,10.07
2023-04-18T05:42:28.647Z,10.53
2023-04-18T05:44:58.307Z,10.50
2023-04-18T05:47:28.540Z,11.00
2023-04-18T05:49:56.809Z,10.53
2023-04-18T05:52:26.006Z,11.07
2023-04-18T05:54:54.280Z,10.70
2023-04-18T05:57:22.438Z,10.43
2023-04-18T05:59:50.744Z,10.87
2023-04-18T06:02:21.100Z,11.37
2023-04-18T06:04:49.884Z,10.00
2023-04-18T06:07:18.248Z,11.27
2023-04-18T06:09:46.450Z,10.73
2023-04-18T06:12:14.606Z,10.63
2023-04-18T06:14:42.809Z,11.40
2023-04-18T06:17:12.596Z,10.13
2023-04-18T06:19:42.155Z,10.70
2023-04-18T06:22:10.388Z,11.03
2023-04-18T06:24:38.593Z,10.77
2023-04-18T06:29:36.252Z,10.07
2023-04-18T06:32:06.176Z,10.90
2023-04-18T06:34:34.406Z,10.40
2023-04-18T06:37:03.976Z,11.00
2023-04-18T06:39:32.184Z,10.50
2023-04-18T06:42:00.367Z,10.97
2023-04-18T06:44:28.484Z,10.53
2023-04-18T06:46:56.743Z,10.93
2023-04-18T06:49:26.500Z,10.47
2023-04-18T06:51:55.028Z,10.90
2023-04-18T06:54:24.614Z,10.70
2023-04-18T06:56:52.891Z,10.53
2023-04-18T06:59:21.559Z,11.17
2023-04-18T07:01:50.669Z,10.73
2023-04-18T07:04:19.321Z,10.63
2023-04-18T07:06:47.765Z,10.53
2023-04-18T07:09:15.990Z,10.33
2023-04-18T07:11:45.649Z,10.50
2023-04-18T07:14:14.125Z,10.37
2023-04-18T07:16:42.933Z,10.27
2023-04-18T07:19:11.100Z,10.33
2023-04-18T07:21:40.569Z,10.60
2023-04-18T07:24:08.810Z,10.03
2023-04-18T07:26:37.078Z,11.70
2023-04-18T07:29:06.566Z,10.27
2023-04-18T07:31:34.785Z,9.80
2023-04-18T07:34:03.039Z,10.13
2023-04-18T07:36:31.326Z,10.20
2023-04-18T07:38:59.575Z,9.90
2023-04-18T07:41:27.786Z,10.10
2023-04-18T07:43:55.997Z,10.13
2023-04-18T07:46:25.549Z,9.90
2023-04-18T07:48:53.702Z,10.53
2023-04-18T07:51:21.944Z,9.63
2023-04-18T07:53:50.184Z,10.13
2023-04-18T07:56:18.325Z,9.93
2023-04-18T07:58:46.685Z,9.80
2023-04-18T08:01:18.209Z,10.13
2023-04-18T08:03:48.349Z,9.47
2023-04-18T08:06:16.756Z,10.10
2023-04-18T08:08:44.984Z,9.93
2023-04-18T08:11:13.213Z,10.07
2023-04-18T08:13:41.361Z,9.47
2023-04-18T08:16:09.807Z,9.23
2023-04-18T08:18:38.208Z,9.50
2023-04-18T08:21:08.041Z,9.53
2023-04-18T08:23:36.191Z,9.47
2023-04-18T08:26:04.394Z,9.67
2023-04-18T08:28:32.552Z,9.00
2023-04-18T08:31:00.702Z,9.60
2023-04-18T08:33:28.853Z,8.67
2023-04-18T08:35:57.027Z,8.47
2023-04-18T08:38:26.460Z,9.10
2023-04-18T08:40:54.671Z,9.07
2023-04-18T08:43:22.857Z,8.73
2023-04-18T08:45:51.131Z,8.23
2023-04-18T08:48:19.808Z,8.93
2023-04-18T08:50:48.000Z,8.73
2023-04-18T08:53:18.407Z,8.77
2023-04-18T08:55:50.573Z,8.17
2023-04-18T08:58:23.301Z,9.10
2023-04-18T09:00:52.134Z,8.10
2023-04-18T09:03:37.294Z,7.63
2023-04-18T09:06:09.548Z,8.30
2023-04-18T09:08:38.214Z,7.70
2023-04-18T09:11:23.193Z,7.87
2023-04-18T09:13:51.863Z,8.50
2023-04-18T09:16:22.398Z,7.97
2023-04-18T09:19:10.872Z,9.37
2023-04-18T09:21:40.659Z,6.93
2023-04-18T09:24:21.173Z,8.47
2023-04-18T09:26:51.352Z,7.37
2023-04-18T09:29:22.312Z,7.10
2023-04-18T09:31:57.472Z,7.73
2023-04-18T09:34:26.343Z,7.63
2023-04-18T09:37:07.488Z,7.40
2023-04-18T09:39:35.692Z,7.30
2023-04-18T09:42:05.616Z,7.60
2023-04-18T09:44:33.810Z,7.87
2023-04-18T09:47:02.270Z,7.97
2023-04-18T09:49:30.896Z,8.20
2023-04-18T09:51:59.301Z,7.80
2023-04-18T09:54:28.704Z,7.67
2023-04-18T09:56:58.760Z,7.90
2023-04-18T09:59:35.325Z,7.87
2023-04-18T10:02:04.603Z,7.73
2023-04-18T10:04:34.227Z,8.43
2023-04-18T10:07:03.493Z,7.67
2023-04-18T10:09:33.102Z,7.93
2023-04-18T10:12:02.184Z,7.73
2023-04-18T10:14:34.075Z,8.03
2023-04-18T10:17:02.510Z,8.13
2023-04-18T10:19:31.829Z,7.27
2023-04-18T10:22:00.917Z,7.70
2023-04-18T10:24:48.666Z,7.90
2023-04-18T10:27:17.559Z,8.30
2023-04-18T10:29:50.582Z,7.77
2023-04-18T10:32:19.255Z,7.50
2023-04-18T10:34:48.158Z,7.00
2023-04-18T10:37:17.629Z,7.60
2023-04-18T10:39:49.812Z,8.07
2023-04-18T10:42:18.169Z,7.73
2023-04-18T10:45:13.946Z,7.70
2023-04-18T10:47:42.346Z,7.23
2023-04-18T10:50:11.674Z,7.20
2023-04-18T10:52:40.218Z,7.13
2023-04-18T10:55:12.900Z,7.87
2023-04-18T10:57:41.966Z,7.20
2023-04-18T11:00:12.914Z,7.70
2023-04-18T11:02:42.306Z,7.50
2023-04-18T11:05:11.072Z,7.83
2023-04-18T11:07:39.961Z,6.90
2023-04-18T11:10:09.569Z,7.33
2023-04-18T11:12:38.776Z,6.47
2023-04-18T11:15:13.145Z,6.13
2023-04-18T11:17:41.657Z,6.50
2023-04-18T11:20:11.371Z,6.17
2023-04-18T11:22:45.756Z,6.07
2023-04-18T11:25:13.944Z,6.73
2023-04-18T11:27:43.550Z,6.73
2023-04-18T11:30:13.784Z,6.80
2023-04-18T11:32:42.050Z,6.30
2023-04-18T11:35:11.161Z,6.63
2023-04-18T11:37:40.594Z,6.60
2023-04-18T11:40:10.452Z,7.23
2023-04-18T11:42:40.042Z,6.30
2023-04-18T11:45:11.137Z,7.43
2023-04-18T11:47:41.799Z,6.50
2023-04-18T11:50:10.873Z,6.57
2023-04-18T11:52:39.201Z,6.87
2023-04-18T11:55:14.434Z,7.13
2023-04-18T11:57:42.794Z,6.37
2023-04-18T12:00:12.363Z,6.20
2023-04-18T12:02:43.499Z,5.80
2023-04-18T12:05:14.617Z,5.57
2023-04-18T12:07:44.073Z,5.33
2023-04-18T12:10:28.122Z,5.60
2023-04-18T12:12:58.567Z,5.40
2023-04-18T12:15:28.223Z,5.57
2023-04-18T12:18:01.478Z,5.40
2023-04-18T12:20:37.364Z,4.83
2023-04-18T12:23:05.599Z,5.13
2023-04-18T12:25:34.788Z,5.10
2023-04-18T12:28:04.491Z,4.40
2023-04-18T12:30:36.009Z,4.57
2023-04-18T12:33:09.161Z,4.53
2023-04-18T12:35:37.348Z,5.60
2023-04-18T12:38:06.747Z,5.03
2023-04-18T12:40:34.896Z,6.47
2023-04-18T12:43:03.951Z,5.13
2023-04-18T12:45:32.243Z,5.10
2023-04-18T12:48:00.518Z,5.20
2023-04-18T12:50:30.123Z,4.60
2023-04-18T12:53:00.128Z,4.67
2023-04-18T12:55:28.714Z,4.97
2023-04-18T12:57:58.075Z,5.13
2023-04-18T13:00:27.252Z,5.10
2023-04-18T13:02:55.764Z,4.97
2023-04-18T13:05:24.636Z,4.53
2023-04-18T13:08:05.092Z,4.80
2023-04-18T13:10:41.337Z,4.83
2023-04-18T13:13:09.474Z,5.57
2023-04-18T13:15:37.729Z,5.40
2023-04-18T13:18:06.739Z,5.23
2023-04-18T13:20:35.758Z,5.40
2023-04-18T13:23:05.343Z,6.43
2023-04-18T13:25:33.505Z,6.37
2023-04-18T13:28:01.752Z,6.70
2023-04-18T13:30:29.979Z,5.93
2023-04-18T13:32:58.259Z,6.20
2023-04-18T13:35:26.588Z,6.80
2023-04-18T13:37:54.791Z,7.20
2023-04-18T13:40:25.093Z,7.13
2023-04-18T13:42:53.323Z,7.43
2023-04-18T13:45:21.594Z,8.73
2023-04-18T13:47:49.828Z,8.03
2023-04-18T13:50:18.121Z,7.17
2023-04-18T13:52:48.037Z,8.10
2023-04-18T13:55:17.870Z,8.07
2023-04-18T13:57:47.358Z,8.00
2023-04-18T14:00:16.869Z,7.77
2023-04-18T14:02:45.415Z,7.50
2023-04-18T14:05:13.822Z,8.27
2023-04-18T14:07:42.257Z,8.60
2023-04-18T14:10:10.729Z,8.20
2023-04-18T14:12:39.911Z,8.10
2023-04-18T14:15:10.635Z,8.37
2023-04-18T14:17:38.840Z,8.27
2023-04-18T14:20:08.493Z,8.70
2023-04-18T14:22:36.778Z,8.87
2023-04-18T14:25:05.188Z,8.17
2023-04-18T14:27:33.359Z,8.97
2023-04-18T14:30:01.512Z,8.67
2023-04-18T14:32:31.400Z,8.20
2023-04-18T14:35:00.024Z,8.80
2023-04-18T14:37:28.199Z,8.67
2023-04-18T14:39:56.323Z,8.93
2023-04-18T14:42:24.558Z,8.57
2023-04-18T14:44:52.696Z,8.47
2023-04-18T14:47:21.022Z,8.53
2023-04-18T14:49:50.563Z,9.40
2023-04-18T14:52:19.396Z,9.27
2023-04-18T14:54:47.630Z,8.87
2023-04-18T14:57:16.112Z,8.80
2023-04-18T14:59:44.242Z,9.10
2023-04-18T15:02:12.483Z,9.60
2023-04-18T15:04:40.732Z,9.53
2023-04-18T15:07:10.307Z,9.80
2023-04-18T15:09:38.555Z,9.93
2023-04-18T15:12:07.578Z,9.47
2023-04-18T15:14:36.068Z,10.00
2023-04-18T15:17:04.501Z,10.50
2023-04-18T15:19:32.901Z,10.50
2023-04-18T15:22:01.092Z,10.97
2023-04-18T15:24:30.871Z,10.27
2023-04-18T15:26:59.089Z,10.47
2023-04-18T15:29:27.299Z,10.50
2023-04-18T15:31:55.538Z,11.37
2023-04-18T15:34:23.695Z,11.03
2023-04-18T15:36:51.853Z,11.20
2023-04-18T15:39:23.420Z,11.47
2023-04-18T15:41:54.979Z,10.67
2023-04-18T15:44:23.255Z,10.67
2023-04-18T15:46:51.742Z,11.00
2023-04-18T15:49:20.113Z,11.10
2023-04-18T15:51:48.310Z,10.83
2023-04-18T15:54:16.790Z,10.67
2023-04-18T15:56:45.120Z,11.10
2023-04-18T15:59:14.598Z,10.50
2023-04-18T16:01:45.684Z,10.73
2023-04-18T16:04:14.584Z,10.80
2023-04-18T16:06:43.165Z,10.67
2023-04-18T16:09:11.311Z,10.87
2023-04-18T16:11:39.529Z,10.93
2023-04-18T16:14:07.766Z,10.43
2023-04-18T16:16:37.265Z,11.30
2023-04-18T16:19:05.615Z,10.70
2023-04-18T16:21:33.846Z,9.97
2023-04-18T16:24:02.286Z,10.03
2023-04-18T16:26:30.596Z,9.43
2023-04-18T16:28:58.763Z,9.80
2023-04-18T16:31:27.059Z,10.27
2023-04-18T16:33:56.664Z,9.33
2023-04-18T16:36:24.924Z,10.30
2023-04-18T16:38:53.091Z,10.07
2023-04-18T16:41:21.248Z,9.67
2023-04-18T16:43:49.425Z,10.03
2023-04-18T16:46:17.671Z,10.40
2023-04-18T16:48:45.976Z,10.60
2023-04-18T16:51:15.590Z,10.30
2023-04-18T16:53:45.668Z,10.07
2023-04-18T16:56:13.897Z,10.73
2023-04-18T16:58:42.291Z,10.67
2023-04-18T17:01:10.531Z,10.00
2023-04-18T17:03:38.944Z,10.40
2023-04-18T17:06:07.524Z,10.33
2023-04-18T17:08:37.005Z,11.03
2023-04-18T17:11:05.205Z,10.63
2023-04-18T17:13:33.415Z,10.13
2023-04-18T17:16:01.835Z,10.60
2023-04-18T17:18:30.028Z,9.93
2023-04-18T17:20:58.180Z,10.47
2023-04-18T17:23:26.371Z,9.17
2023-04-18T17:25:56.070Z,10.50
2023-04-18T17:28:25.007Z,9.73
2023-04-18T17:30:53.161Z,10.20
2023-04-18T17:33:21.388Z,10.13
2023-04-18T17:35:50.259Z,10.13
2023-04-18T17:38:18.455Z,10.03
2023-04-18T17:40:46.605Z,9.13
2023-04-18T17:43:16.424Z,10.00
2023-04-18T17:45:44.756Z,9.70
2023-04-18T17:48:12.892Z,10.13
2023-04-18T17:50:42.727Z,9.73
2023-04-18T17:53:12.311Z,9.87
2023-04-18T17:55:41.373Z,9.60
2023-04-18T17:58:09.546Z,9.77
2023-04-18T18:00:39.114Z,9.87
2023-04-18T18:03:09.292Z,10.20
2023-04-18T18:05:37.592Z,9.83
2023-04-18T18:08:05.851Z,10.30
2023-04-18T18:10:34.620Z,9.33
2023-04-18T18:13:03.204Z,10.20
2023-04-18T18:15:31.557Z,10.10
2023-04-18T18:18:01.807Z,9.70
2023-04-18T18:20:30.753Z,10.37
2023-04-18T18:22:59.759Z,10.17
2023-04-18T18:25:28.582Z,10.60
2023-04-18T18:27:56.783Z,10.53
2023-04-18T18:30:24.931Z,10.80
2023-04-18T18:32:53.556Z,10.40
2023-04-18T18:35:23.142Z,10.80
2023-04-18T18:37:51.507Z,10.97
2023-04-18T18:40:19.749Z,10.80
2023-04-18T18:42:49.400Z,11.30
2023-04-18T18:45:17.618Z,10.10
2023-04-18T18:47:46.135Z,11.33
2023-04-18T18:50:14.644Z,10.90
2023-04-18T18:52:44.178Z,11.30
2023-04-18T18:55:12.671Z,10.87
2023-04-18T18:57:40.931Z,10.50
2023-04-18T19:00:11.595Z,10.57
2023-04-18T19:02:40.225Z,10.80
2023-04-18T19:05:08.862Z,10.47
2023-04-18T19:07:37.076Z,11.20
2023-04-18T19:10:07.884Z,15.33
2023-04-18T19:12:36.213Z,14.27
2023-04-18T19:15:04.514Z,14.97
2023-04-18T19:17:32.698Z,20.33
2023-04-18T19:20:01.618Z,16.33
2023-04-18T19:22:29.964Z,13.03
2023-04-18T19:25:00.340Z,12.83
2023-04-18T19:27:29.867Z,10.10
2023-04-18T19:29:58.037Z,11.20
2023-04-18T19:32:26.752Z,11.67
2023-04-18T19:34:54.885Z,11.33
2023-04-18T19:37:22.994Z,11.20
2023-04-18T19:39:51.112Z,11.50
2023-04-18T19:42:19.268Z,11.57
2023-04-18T19:44:48.814Z,11.77
2023-04-18T19:47:16.976Z,11.90
2023-04-18T19:49:45.198Z,11.17
2023-04-18T19:52:13.368Z,11.00
2023-04-18T19:54:41.565Z,11.63
2023-04-18T19:57:09.729Z,11.53
2023-04-18T19:59:37.958Z,11.40
2023-04-18T20:02:07.825Z,11.20
2023-04-18T20:04:36.447Z,11.63
2023-04-18T20:07:04.897Z,11.43
2023-04-18T20:09:33.050Z,10.60
2023-04-18T20:12:02.001Z,11.37
2023-04-18T20:14:30.562Z,11.10
2023-04-18T20:16:58.733Z,11.30
2023-04-18T20:19:29.493Z,11.20
2023-04-18T20:21:57.610Z,11.43
2023-04-18T20:24:27.954Z,11.30
2023-04-18T20:26:57.129Z,11.37
2023-04-18T20:29:25.330Z,11.50
2023-04-18T20:31:53.683Z,11.27
2023-04-18T20:34:22.040Z,10.60
2023-04-18T20:36:52.591Z,10.97
2023-04-18T20:39:20.760Z,10.30
2023-04-18T20:41:51.369Z,10.33
2023-04-18T20:44:20.925Z,9.83
2023-04-18T20:46:49.356Z,10.17
2023-04-18T20:49:17.730Z,10.20
2023-04-18T20:51:45.956Z,10.20
2023-04-18T20:54:15.709Z,10.87
2023-04-18T20:56:44.159Z,9.93
2023-04-18T20:59:12.393Z,10.00
2023-04-18T21:01:41.206Z,9.67
2023-04-18T21:04:09.795Z,10.20
2023-04-18T21:06:38.043Z,9.93
2023-04-18T21:09:06.552Z,10.10
2023-04-18T21:11:36.341Z,9.77
2023-04-18T21:14:06.544Z,10.40
2023-04-18T21:16:35.315Z,10.40
2023-04-18T21:19:03.633Z,9.77
2023-04-18T21:21:34.069Z,9.77
2023-04-18T21:24:02.291Z,9.90
2023-04-18T21:26:30.409Z,9.13
2023-04-18T21:29:00.671Z,9.60
2023-04-18T21:31:30.595Z,9.50
2023-04-18T21:33:59.702Z,8.83
2023-04-18T21:36:28.664Z,9.40
2023-04-18T21:38:57.345Z,8.77
2023-04-18T21:41:25.599Z,9.17
2023-04-18T21:43:54.078Z,8.40
2023-04-18T21:46:23.691Z,9.20
2023-04-18T21:48:51.971Z,8.77
2023-04-18T21:51:20.105Z,8.37
2023-04-18T21:53:48.260Z,8.73
2023-04-18T21:56:16.732Z,8.90
2023-04-18T21:58:44.857Z,8.90
2023-04-18T22:01:13.158Z,8.73
2023-04-18T22:03:42.878Z,8.30
2023-04-18T22:06:11.759Z,8.63
2023-04-18T22:08:39.937Z,8.53
2023-04-18T22:11:09.173Z,8.87
2023-04-18T22:13:37.397Z,9.03
2023-04-18T22:16:05.771Z,8.87
2023-04-18T22:18:34.511Z,8.20
2023-04-18T22:21:04.266Z,8.70
2023-04-18T22:23:32.514Z,8.53
2023-04-18T22:26:00.649Z,8.67
2023-04-18T22:28:28.926Z,8.00
2023-04-18T22:30:57.222Z,8.67
2023-04-18T22:33:25.603Z,8.17
2023-04-18T22:35:54.140Z,7.90
2023-04-18T22:38:23.677Z,8.70
2023-04-18T22:40:51.865Z,8.27
2023-04-18T22:43:23.485Z,8.60
2023-04-18T22:45:51.767Z,7.60
2023-04-18T22:48:20.066Z,9.07
2023-04-18T22:50:49.564Z,8.67
2023-04-18T22:53:18.023Z,8.33
2023-04-18T22:55:47.547Z,8.17
2023-04-18T22:58:15.761Z,8.13
2023-04-18T23:00:43.980Z,7.93
2023-04-18T23:03:12.328Z,7.67
2023-04-18T23:05:40.659Z,9.00
2023-04-18T23:08:08.836Z,7.97
2023-04-18T23:10:37.007Z,8.90
2023-04-18T23:13:06.523Z,8.17
2023-04-18T23:15:34.749Z,7.43
2023-04-18T23:18:02.940Z,8.60
2023-04-18T23:20:31.176Z,7.83
2023-04-18T23:22:59.289Z,8.40
2023-04-18T23:25:27.454Z,8.27
2023-04-18T23:27:55.552Z,8.23
2023-04-18T23:30:25.161Z,7.97
2023-04-18T23:32:53.734Z,7.93
2023-04-18T23:35:21.928Z,7.93
2023-04-18T23:37:50.450Z,8.10
2023-04-18T23:40:18.651Z,8.03
2023-04-18T23:42:47.139Z,7.90
2023-04-18T23:45:15.825Z,8.07
2023-04-18T23:47:45.439Z,7.60
2023-04-18T23:50:13.956Z,8.33
2023-04-18T23:52:42.080Z,7.20
2023-04-18T23:55:10.774Z,8.00
2023-04-18T23:57:39.027Z,8.03
